sensor_id;sensor_type;location;lat;lon;timestamp;P1;durP1;ratioP1;P2;durP2;ratioP2
27666;SDS011;15074;50.940;5.282;2023-04-02T00:00:30;11.98;;;10.77;;
27666;SDS011;15074;50.940;5.282;2023-04-02T00:02:58;13.35;;;11.70;;
27666;SDS011;15074;50.940;5.282;2023-04-02T00:08:04;10.35;;;9.35;;
27666;SDS011;15074;50.940;5.282;2023-04-02T00:10:59;10.82;;;9.73;;
27666;SDS011;15074;50.940;5.282;2023-04-02T00:16:04;10.20;;;8.48;;
27666;SDS011;15074;50.940;5.282;2023-04-02T00:18:33;8.30;;;7.50;;
27666;SDS011;15074;50.940;5.282;2023-04-02T00:21:18;7.65;;;6.85;;
27666;SDS011;15074;50.940;5.282;2023-04-02T00:23:55;7.57;;;6.50;;
27666;SDS011;15074;50.940;5.282;2023-04-02T00:26:32;6.68;;;5.97;;
27666;SDS011;15074;50.940;5.282;2023-04-02T00:29:02;7.03;;;6.30;;
27666;SDS011;15074;50.940;5.282;2023-04-02T00:31:30;6.22;;;5.63;;
27666;SDS011;15074;50.940;5.282;2023-04-02T00:34:00;7.05;;;6.07;;
27666;SDS011;15074;50.940;5.282;2023-04-02T00:36:29;6.80;;;5.97;;
27666;SDS011;15074;50.940;5.282;2023-04-02T00:39:00;6.80;;;6.10;;
27666;SDS011;15074;50.940;5.282;2023-04-02T00:41:29;6.88;;;6.18;;
27666;SDS011;15074;50.940;5.282;2023-04-02T00:44:00;7.05;;;6.35;;
27666;SDS011;15074;50.940;5.282;2023-04-02T00:46:30;7.20;;;6.50;;
27666;SDS011;15074;50.940;5.282;2023-04-02T00:49:18;7.50;;;6.20;;
27666;SDS011;15074;50.940;5.282;2023-04-02T00:51:55;8.02;;;7.00;;
27666;SDS011;15074;50.940;5.282;2023-04-02T00:54:24;7.82;;;6.72;;
27666;SDS011;15074;50.940;5.282;2023-04-02T00:56:54;7.65;;;6.57;;
27666;SDS011;15074;50.940;5.282;2023-04-02T00:59:27;7.28;;;6.57;;
27666;SDS011;15074;50.940;5.282;2023-04-02T01:04:41;7.80;;;7.10;;
27666;SDS011;15074;50.940;5.282;2023-04-02T01:07:17;8.00;;;7.20;;
27666;SDS011;15074;50.940;5.282;2023-04-02T01:10:37;7.57;;;6.82;;
27666;SDS011;15074;50.940;5.282;2023-04-02T01:15:54;7.63;;;6.82;;
27666;SDS011;15074;50.940;5.282;2023-04-02T01:21:32;8.88;;;7.97;;
27666;SDS011;15074;50.940;5.282;2023-04-02T01:24:10;9.60;;;8.60;;
27666;SDS011;15074;50.940;5.282;2023-04-02T01:29:43;9.95;;;8.95;;
27666;SDS011;15074;50.940;5.282;2023-04-02T01:32:14;10.82;;;9.80;;
27666;SDS011;15074;50.940;5.282;2023-04-02T01:34:45;9.20;;;8.25;;
27666;SDS011;15074;50.940;5.282;2023-04-02T01:45:42;10.68;;;8.55;;
27666;SDS011;15074;50.940;5.282;2023-04-02T01:48:12;9.68;;;8.70;;
27666;SDS011;15074;50.940;5.282;2023-04-02T01:50:44;10.10;;;9.10;;
27666;SDS011;15074;50.940;5.282;2023-04-02T01:53:14;10.38;;;9.38;;
27666;SDS011;15074;50.940;5.282;2023-04-02T01:58:11;9.95;;;8.95;;
27666;SDS011;15074;50.940;5.282;2023-04-02T02:00:46;10.37;;;9.33;;
27666;SDS011;15074;50.940;5.282;2023-04-02T02:03:18;8.80;;;7.85;;
27666;SDS011;15074;50.940;5.282;2023-04-02T02:05:45;10.77;;;9.10;;
27666;SDS011;15074;50.940;5.282;2023-04-02T02:08:22;8.70;;;7.72;;
27666;SDS011;15074;50.940;5.282;2023-04-02T02:11:01;9.05;;;8.15;;
27666;SDS011;15074;50.940;5.282;2023-04-02T02:13:27;8.10;;;7.18;;
27666;SDS011;15074;50.940;5.282;2023-04-02T02:15:55;9.45;;;8.55;;
27666;SDS011;15074;50.940;5.282;2023-04-02T02:18:22;8.40;;;7.50;;
27666;SDS011;15074;50.940;5.282;2023-04-02T02:20:49;8.70;;;7.80;;
27666;SDS011;15074;50.940;5.282;2023-04-02T02:23:16;8.68;;;7.82;;
27666;SDS011;15074;50.940;5.282;2023-04-02T02:25:43;8.52;;;7.55;;
27666;SDS011;15074;50.940;5.282;2023-04-02T02:28:15;8.18;;;7.35;;
27666;SDS011;15074;50.940;5.282;2023-04-02T02:30:52;7.65;;;6.95;;
27666;SDS011;15074;50.940;5.282;2023-04-02T02:33:40;8.25;;;7.45;;
27666;SDS011;15074;50.940;5.282;2023-04-02T02:36:15;8.25;;;7.45;;
27666;SDS011;15074;50.940;5.282;2023-04-02T02:38:52;8.82;;;7.90;;
27666;SDS011;15074;50.940;5.282;2023-04-02T02:44:16;7.22;;;6.53;;
27666;SDS011;15074;50.940;5.282;2023-04-02T02:46:51;8.27;;;7.47;;
27666;SDS011;15074;50.940;5.282;2023-04-02T02:50:25;7.35;;;6.63;;
27666;SDS011;15074;50.940;5.282;2023-04-02T02:52:22;8.45;;;7.55;;
27666;SDS011;15074;50.940;5.282;2023-04-02T02:54:53;8.80;;;7.78;;
27666;SDS011;15074;50.940;5.282;2023-04-02T02:57:26;8.07;;;7.28;;
27666;SDS011;15074;50.940;5.282;2023-04-02T02:59:56;8.18;;;7.32;;
27666;SDS011;15074;50.940;5.282;2023-04-02T03:02:23;8.23;;;7.43;;
27666;SDS011;15074;50.940;5.282;2023-04-02T03:04:51;8.20;;;7.40;;
27666;SDS011;15074;50.940;5.282;2023-04-02T03:07:19;7.57;;;6.88;;
27666;SDS011;15074;50.940;5.282;2023-04-02T03:20:25;7.50;;;6.80;;
27666;SDS011;15074;50.940;5.282;2023-04-02T03:26:00;7.88;;;7.10;;
27666;SDS011;15074;50.940;5.282;2023-04-02T03:28:51;7.80;;;7.00;;
27666;SDS011;15074;50.940;5.282;2023-04-02T03:31:26;7.65;;;6.82;;
27666;SDS011;15074;50.940;5.282;2023-04-02T03:36:58;6.07;;;5.47;;
27666;SDS011;15074;50.940;5.282;2023-04-02T03:42:43;6.00;;;5.40;;
27666;SDS011;15074;50.940;5.282;2023-04-02T03:45:21;5.93;;;5.32;;
27666;SDS011;15074;50.940;5.282;2023-04-02T03:50:27;6.00;;;5.40;;
27666;SDS011;15074;50.940;5.282;2023-04-02T03:52:58;7.45;;;6.75;;
27666;SDS011;15074;50.940;5.282;2023-04-02T03:55:29;7.05;;;6.38;;
27666;SDS011;15074;50.940;5.282;2023-04-02T03:58:02;7.55;;;6.80;;
27666;SDS011;15074;50.940;5.282;2023-04-02T04:00:36;8.45;;;7.63;;
27666;SDS011;15074;50.940;5.282;2023-04-02T04:03:14;8.43;;;7.57;;
27666;SDS011;15074;50.940;5.282;2023-04-02T04:05:47;8.32;;;7.47;;
27666;SDS011;15074;50.940;5.282;2023-04-02T04:08:44;9.18;;;7.53;;
27666;SDS011;15074;50.940;5.282;2023-04-02T04:11:16;8.05;;;7.35;;
27666;SDS011;15074;50.940;5.282;2023-04-02T04:13:52;8.75;;;7.95;;
27666;SDS011;15074;50.940;5.282;2023-04-02T04:16:38;8.60;;;7.78;;
27666;SDS011;15074;50.940;5.282;2023-04-02T04:24:58;8.10;;;7.30;;
27666;SDS011;15074;50.940;5.282;2023-04-02T04:30:16;7.72;;;6.93;;
27666;SDS011;15074;50.940;5.282;2023-04-02T04:32:52;7.00;;;6.32;;
27666;SDS011;15074;50.940;5.282;2023-04-02T04:35:32;7.82;;;7.03;;
27666;SDS011;15074;50.940;5.282;2023-04-02T04:38:15;7.70;;;6.90;;
27666;SDS011;15074;50.940;5.282;2023-04-02T04:41:24;8.32;;;7.53;;
27666;SDS011;15074;50.940;5.282;2023-04-02T04:43:55;7.05;;;6.05;;
27666;SDS011;15074;50.940;5.282;2023-04-02T04:46:48;8.53;;;7.60;;
27666;SDS011;15074;50.940;5.282;2023-04-02T04:52:18;8.68;;;7.70;;
27666;SDS011;15074;50.940;5.282;2023-04-02T04:54:46;10.15;;;7.30;;
27666;SDS011;15074;50.940;5.282;2023-04-02T04:57:24;7.72;;;6.93;;
27666;SDS011;15074;50.940;5.282;2023-04-02T05:00:10;8.68;;;7.80;;
27666;SDS011;15074;50.940;5.282;2023-04-02T05:05:25;11.48;;;9.13;;
27666;SDS011;15074;50.940;5.282;2023-04-02T05:07:57;8.60;;;7.65;;
27666;SDS011;15074;50.940;5.282;2023-04-02T05:23:47;10.02;;;9.02;;
27666;SDS011;15074;50.940;5.282;2023-04-02T05:31:46;9.13;;;8.18;;
27666;SDS011;15074;50.940;5.282;2023-04-02T05:34:21;9.95;;;8.95;;
27666;SDS011;15074;50.940;5.282;2023-04-02T05:36:50;10.07;;;8.98;;
27666;SDS011;15074;50.940;5.282;2023-04-02T05:39:19;9.85;;;8.85;;
27666;SDS011;15074;50.940;5.282;2023-04-02T05:41:47;13.35;;;9.20;;
27666;SDS011;15074;50.940;5.282;2023-04-02T05:44:27;10.02;;;9.02;;
27666;SDS011;15074;50.940;5.282;2023-04-02T05:46:58;9.38;;;8.48;;
27666;SDS011;15074;50.940;5.282;2023-04-02T05:49:30;9.25;;;8.32;;
27666;SDS011;15074;50.940;5.282;2023-04-02T05:52:14;15.07;;;9.55;;
27666;SDS011;15074;50.940;5.282;2023-04-02T05:54:48;10.27;;;9.18;;
27666;SDS011;15074;50.940;5.282;2023-04-02T05:57:22;11.43;;;10.32;;
27666;SDS011;15074;50.940;5.282;2023-04-02T05:59:56;12.68;;;10.60;;
27666;SDS011;15074;50.940;5.282;2023-04-02T06:02:35;11.20;;;10.02;;
27666;SDS011;15074;50.940;5.282;2023-04-02T06:07:53;10.52;;;9.13;;
27666;SDS011;15074;50.940;5.282;2023-04-02T06:10:27;10.25;;;9.25;;
27666;SDS011;15074;50.940;5.282;2023-04-02T06:12:57;9.88;;;8.95;;
27666;SDS011;15074;50.940;5.282;2023-04-02T06:15:30;11.57;;;9.00;;
27666;SDS011;15074;50.940;5.282;2023-04-02T06:17:57;10.80;;;9.70;;
27666;SDS011;15074;50.940;5.282;2023-04-02T06:20:25;13.15;;;10.05;;
27666;SDS011;15074;50.940;5.282;2023-04-02T06:22:56;11.65;;;10.30;;
27666;SDS011;15074;50.940;5.282;2023-04-02T06:28:47;12.00;;;9.85;;
27666;SDS011;15074;50.940;5.282;2023-04-02T06:31:38;10.95;;;9.85;;
27666;SDS011;15074;50.940;5.282;2023-04-02T06:34:15;11.23;;;10.13;;
27666;SDS011;15074;50.940;5.282;2023-04-02T06:36:43;12.18;;;10.45;;
27666;SDS011;15074;50.940;5.282;2023-04-02T06:39:13;14.80;;;11.68;;
27666;SDS011;15074;50.940;5.282;2023-04-02T06:41:44;14.23;;;12.38;;
27666;SDS011;15074;50.940;5.282;2023-04-02T06:44:15;14.18;;;12.77;;
27666;SDS011;15074;50.940;5.282;2023-04-02T06:46:49;17.45;;;11.50;;
27666;SDS011;15074;50.940;5.282;2023-04-02T06:49:22;16.98;;;12.75;;
27666;SDS011;15074;50.940;5.282;2023-04-02T06:52:02;13.73;;;11.55;;
27666;SDS011;15074;50.940;5.282;2023-04-02T06:54:30;14.30;;;11.80;;
27666;SDS011;15074;50.940;5.282;2023-04-02T06:56:56;15.38;;;11.57;;
27666;SDS011;15074;50.940;5.282;2023-04-02T06:59:21;16.00;;;13.10;;
27666;SDS011;15074;50.940;5.282;2023-04-02T07:04:19;12.70;;;11.40;;
27666;SDS011;15074;50.940;5.282;2023-04-02T07:06:45;13.40;;;11.57;;
27666;SDS011;15074;50.940;5.282;2023-04-02T07:09:11;14.07;;;11.38;;
27666;SDS011;15074;50.940;5.282;2023-04-02T07:11:37;14.18;;;12.70;;
27666;SDS011;15074;50.940;5.282;2023-04-02T07:14:03;14.88;;;12.77;;
27666;SDS011;15074;50.940;5.282;2023-04-02T07:16:30;13.38;;;12.00;;
27666;SDS011;15074;50.940;5.282;2023-04-02T07:18:57;14.18;;;11.65;;
27666;SDS011;15074;50.940;5.282;2023-04-02T07:21:23;14.73;;;12.10;;
27666;SDS011;15074;50.940;5.282;2023-04-02T07:23:51;13.87;;;11.73;;
27666;SDS011;15074;50.940;5.282;2023-04-02T07:26:18;12.93;;;11.60;;
27666;SDS011;15074;50.940;5.282;2023-04-02T07:28:49;15.65;;;12.38;;
27666;SDS011;15074;50.940;5.282;2023-04-02T07:31:16;17.75;;;12.50;;
27666;SDS011;15074;50.940;5.282;2023-04-02T07:33:44;14.82;;;12.98;;
27666;SDS011;15074;50.940;5.282;2023-04-02T07:36:13;17.20;;;13.75;;
27666;SDS011;15074;50.940;5.282;2023-04-02T07:38:41;16.05;;;13.57;;
27666;SDS011;15074;50.940;5.282;2023-04-02T07:41:07;28.95;;;15.88;;
27666;SDS011;15074;50.940;5.282;2023-04-02T07:43:33;30.30;;;18.75;;
27666;SDS011;15074;50.940;5.282;2023-04-02T07:46:00;28.15;;;18.23;;
27666;SDS011;15074;50.940;5.282;2023-04-02T07:48:26;27.35;;;15.55;;
27666;SDS011;15074;50.940;5.282;2023-04-02T07:50:51;28.10;;;17.75;;
27666;SDS011;15074;50.940;5.282;2023-04-02T07:53:30;30.05;;;19.08;;
27666;SDS011;15074;50.940;5.282;2023-04-02T07:55:58;33.50;;;18.25;;
27666;SDS011;15074;50.940;5.282;2023-04-02T07:58:27;31.05;;;17.65;;
27666;SDS011;15074;50.940;5.282;2023-04-02T08:00:56;28.92;;;16.27;;
27666;SDS011;15074;50.940;5.282;2023-04-02T08:03:22;21.85;;;14.63;;
27666;SDS011;15074;50.940;5.282;2023-04-02T08:05:52;22.90;;;16.50;;
27666;SDS011;15074;50.940;5.282;2023-04-02T08:08:20;25.73;;;15.50;;
27666;SDS011;15074;50.940;5.282;2023-04-02T08:10:46;18.27;;;12.73;;
27666;SDS011;15074;50.940;5.282;2023-04-02T08:13:12;20.20;;;13.13;;
27666;SDS011;15074;50.940;5.282;2023-04-02T08:15:39;12.02;;;10.80;;
27666;SDS011;15074;50.940;5.282;2023-04-02T08:18:06;14.20;;;10.40;;
27666;SDS011;15074;50.940;5.282;2023-04-02T08:20:32;18.42;;;12.40;;
27666;SDS011;15074;50.940;5.282;2023-04-02T08:22:58;17.33;;;14.07;;
27666;SDS011;15074;50.940;5.282;2023-04-02T08:25:25;13.35;;;11.95;;
27666;SDS011;15074;50.940;5.282;2023-04-02T08:27:51;15.13;;;10.95;;
27666;SDS011;15074;50.940;5.282;2023-04-02T08:30:17;12.40;;;11.10;;
27666;SDS011;15074;50.940;5.282;2023-04-02T08:32:43;10.15;;;8.48;;
27666;SDS011;15074;50.940;5.282;2023-04-02T08:35:10;9.20;;;7.18;;
27666;SDS011;15074;50.940;5.282;2023-04-02T08:37:37;9.18;;;7.47;;
27666;SDS011;15074;50.940;5.282;2023-04-02T08:40:03;7.03;;;6.32;;
27666;SDS011;15074;50.940;5.282;2023-04-02T08:45:12;13.75;;;10.88;;
27666;SDS011;15074;50.940;5.282;2023-04-02T08:48:02;13.10;;;9.93;;
27666;SDS011;15074;50.940;5.282;2023-04-02T08:50:30;12.15;;;10.93;;
27666;SDS011;15074;50.940;5.282;2023-04-02T08:53:15;12.93;;;10.75;;
27666;SDS011;15074;50.940;5.282;2023-04-02T08:55:56;15.32;;;13.55;;
27666;SDS011;15074;50.940;5.282;2023-04-02T09:01:09;22.95;;;15.35;;
27666;SDS011;15074;50.940;5.282;2023-04-02T09:03:59;18.88;;;13.40;;
27666;SDS011;15074;50.940;5.282;2023-04-02T09:08:53;9.32;;;8.20;;
27666;SDS011;15074;50.940;5.282;2023-04-02T09:11:26;9.15;;;6.82;;
27666;SDS011;15074;50.940;5.282;2023-04-02T09:14:01;10.55;;;6.50;;
27666;SDS011;15074;50.940;5.282;2023-04-02T09:16:39;6.72;;;5.72;;
27666;SDS011;15074;50.940;5.282;2023-04-02T09:21:41;8.38;;;5.60;;
27666;SDS011;15074;50.940;5.282;2023-04-02T09:24:12;9.10;;;5.95;;
27666;SDS011;15074;50.940;5.282;2023-04-02T09:26:38;6.93;;;6.22;;
27666;SDS011;15074;50.940;5.282;2023-04-02T09:31:37;6.75;;;6.07;;
27666;SDS011;15074;50.940;5.282;2023-04-02T09:34:33;9.00;;;6.28;;
27666;SDS011;15074;50.940;5.282;2023-04-02T09:37:07;6.82;;;6.13;;
27666;SDS011;15074;50.940;5.282;2023-04-02T09:39:39;10.18;;;6.53;;
27666;SDS011;15074;50.940;5.282;2023-04-02T09:42:06;6.13;;;5.53;;
27666;SDS011;15074;50.940;5.282;2023-04-02T09:44:50;12.25;;;5.93;;
27666;SDS011;15074;50.940;5.282;2023-04-02T09:47:22;8.60;;;6.18;;
27666;SDS011;15074;50.940;5.282;2023-04-02T09:49:50;9.27;;;7.50;;
27666;SDS011;15074;50.940;5.282;2023-04-02T09:52:25;7.28;;;6.57;;
27666;SDS011;15074;50.940;5.282;2023-04-02T09:57:43;12.70;;;11.00;;
27666;SDS011;15074;50.940;5.282;2023-04-02T10:02:43;18.42;;;13.43;;
27666;SDS011;15074;50.940;5.282;2023-04-02T10:05:22;22.55;;;14.52;;
27666;SDS011;15074;50.940;5.282;2023-04-02T10:07:50;22.58;;;12.45;;
27666;SDS011;15074;50.940;5.282;2023-04-02T10:10:21;12.57;;;10.38;;
27666;SDS011;15074;50.940;5.282;2023-04-02T10:13:03;18.58;;;10.60;;
27666;SDS011;15074;50.940;5.282;2023-04-02T10:21:04;25.88;;;12.68;;
27666;SDS011;15074;50.940;5.282;2023-04-02T10:23:31;17.67;;;12.73;;
27666;SDS011;15074;50.940;5.282;2023-04-02T10:34:45;7.90;;;6.20;;
27666;SDS011;15074;50.940;5.282;2023-04-02T10:40:02;10.82;;;6.20;;
27666;SDS011;15074;50.940;5.282;2023-04-02T10:42:40;6.97;;;5.25;;
27666;SDS011;15074;50.940;5.282;2023-04-02T10:47:53;5.13;;;4.55;;
27666;SDS011;15074;50.940;5.282;2023-04-02T10:50:41;7.47;;;4.60;;
27666;SDS011;15074;50.940;5.282;2023-04-02T10:53:35;6.50;;;4.68;;
27666;SDS011;15074;50.940;5.282;2023-04-02T10:56:17;5.03;;;4.50;;
27666;SDS011;15074;50.940;5.282;2023-04-02T11:01:19;8.27;;;3.95;;
27666;SDS011;15074;50.940;5.282;2023-04-02T11:06:23;4.88;;;4.35;;
27666;SDS011;15074;50.940;5.282;2023-04-02T11:09:02;6.88;;;3.28;;
27666;SDS011;15074;50.940;5.282;2023-04-02T11:11:33;4.88;;;4.10;;
27666;SDS011;15074;50.940;5.282;2023-04-02T11:14:04;5.13;;;4.45;;
27666;SDS011;15074;50.940;5.282;2023-04-02T11:16:43;9.98;;;4.97;;
27666;SDS011;15074;50.940;5.282;2023-04-02T11:21:41;6.28;;;4.38;;
27666;SDS011;15074;50.940;5.282;2023-04-02T11:30:21;5.53;;;3.42;;
27666;SDS011;15074;50.940;5.282;2023-04-02T11:32:25;4.85;;;4.03;;
27666;SDS011;15074;50.940;5.282;2023-04-02T11:34:58;8.82;;;5.10;;
27666;SDS011;15074;50.940;5.282;2023-04-02T11:50:29;5.65;;;3.80;;
27666;SDS011;15074;50.940;5.282;2023-04-02T11:52:56;5.53;;;4.20;;
27666;SDS011;15074;50.940;5.282;2023-04-02T11:55:31;4.80;;;3.55;;
27666;SDS011;15074;50.940;5.282;2023-04-02T12:09:02;5.85;;;3.80;;
27666;SDS011;15074;50.940;5.282;2023-04-02T12:11:42;5.13;;;4.03;;
27666;SDS011;15074;50.940;5.282;2023-04-02T12:16:55;5.15;;;3.55;;
27666;SDS011;15074;50.940;5.282;2023-04-02T12:19:21;4.07;;;3.35;;
27666;SDS011;15074;50.940;5.282;2023-04-02T12:21:49;4.25;;;3.42;;
27666;SDS011;15074;50.940;5.282;2023-04-02T12:24:21;4.13;;;3.72;;
27666;SDS011;15074;50.940;5.282;2023-04-02T12:29:30;4.88;;;3.08;;
27666;SDS011;15074;50.940;5.282;2023-04-02T12:31:57;5.00;;;3.38;;
27666;SDS011;15074;50.940;5.282;2023-04-02T12:34:25;5.38;;;4.32;;
27666;SDS011;15074;50.940;5.282;2023-04-02T12:37:03;6.35;;;3.53;;
27666;SDS011;15074;50.940;5.282;2023-04-02T12:39:32;4.60;;;3.13;;
27666;SDS011;15074;50.940;5.282;2023-04-02T12:41:58;5.53;;;3.15;;
27666;SDS011;15074;50.940;5.282;2023-04-02T12:44:28;4.15;;;3.22;;
27666;SDS011;15074;50.940;5.282;2023-04-02T12:46:55;4.50;;;3.22;;
27666;SDS011;15074;50.940;5.282;2023-04-02T12:52:41;4.57;;;3.42;;
27666;SDS011;15074;50.940;5.282;2023-04-02T12:54:57;4.18;;;3.33;;
27666;SDS011;15074;50.940;5.282;2023-04-02T13:00:01;7.28;;;3.72;;
27666;SDS011;15074;50.940;5.282;2023-04-02T13:02:59;4.72;;;3.30;;
27666;SDS011;15074;50.940;5.282;2023-04-02T13:05:34;3.42;;;2.97;;
27666;SDS011;15074;50.940;5.282;2023-04-02T13:08:16;3.33;;;3.03;;
27666;SDS011;15074;50.940;5.282;2023-04-02T13:10:52;5.40;;;3.40;;
27666;SDS011;15074;50.940;5.282;2023-04-02T13:13:26;5.30;;;3.70;;
27666;SDS011;15074;50.940;5.282;2023-04-02T13:16:00;5.80;;;3.42;;
27666;SDS011;15074;50.940;5.282;2023-04-02T13:18:39;4.57;;;3.50;;
27666;SDS011;15074;50.940;5.282;2023-04-02T13:21:21;4.50;;;3.53;;
27666;SDS011;15074;50.940;5.282;2023-04-02T13:23:51;3.58;;;3.20;;
27666;SDS011;15074;50.940;5.282;2023-04-02T13:26:18;3.97;;;3.20;;
27666;SDS011;15074;50.940;5.282;2023-04-02T13:31:25;6.25;;;4.05;;
27666;SDS011;15074;50.940;5.282;2023-04-02T13:33:51;4.43;;;3.97;;
27666;SDS011;15074;50.940;5.282;2023-04-02T13:36:17;5.22;;;4.03;;
27666;SDS011;15074;50.940;5.282;2023-04-02T13:38:43;5.25;;;4.13;;
27666;SDS011;15074;50.940;5.282;2023-04-02T13:41:21;6.28;;;4.07;;
27666;SDS011;15074;50.940;5.282;2023-04-02T13:43:53;6.00;;;4.53;;
27666;SDS011;15074;50.940;5.282;2023-04-02T13:46:22;4.57;;;3.78;;
27666;SDS011;15074;50.940;5.282;2023-04-02T13:48:50;4.18;;;3.67;;
27666;SDS011;15074;50.940;5.282;2023-04-02T13:51:17;4.38;;;3.70;;
27666;SDS011;15074;50.940;5.282;2023-04-02T13:53:53;4.97;;;3.40;;
27666;SDS011;15074;50.940;5.282;2023-04-02T13:56:20;3.30;;;2.67;;
27666;SDS011;15074;50.940;5.282;2023-04-02T13:58:48;4.35;;;3.17;;
27666;SDS011;15074;50.940;5.282;2023-04-02T14:01:15;3.88;;;2.80;;
27666;SDS011;15074;50.940;5.282;2023-04-02T14:03:42;2.88;;;2.67;;
27666;SDS011;15074;50.940;5.282;2023-04-02T14:06:26;3.72;;;3.00;;
27666;SDS011;15074;50.940;5.282;2023-04-02T14:14:01;3.90;;;2.80;;
27666;SDS011;15074;50.940;5.282;2023-04-02T14:30:21;4.57;;;3.35;;
27666;SDS011;15074;50.940;5.282;2023-04-02T14:38:53;4.75;;;3.25;;
27666;SDS011;15074;50.940;5.282;2023-04-02T14:44:08;4.68;;;3.60;;
27666;SDS011;15074;50.940;5.282;2023-04-02T14:46:36;4.18;;;3.78;;
27666;SDS011;15074;50.940;5.282;2023-04-02T14:49:09;3.78;;;3.40;;
27666;SDS011;15074;50.940;5.282;2023-04-02T14:51:52;4.15;;;2.80;;
27666;SDS011;15074;50.940;5.282;2023-04-02T14:57:24;4.82;;;3.83;;
27666;SDS011;15074;50.940;5.282;2023-04-02T15:00:04;4.47;;;3.55;;
27666;SDS011;15074;50.940;5.282;2023-04-02T15:05:25;2.80;;;2.50;;
27666;SDS011;15074;50.940;5.282;2023-04-02T15:11:03;3.85;;;2.70;;
27666;SDS011;15074;50.940;5.282;2023-04-02T15:13:58;2.97;;;2.67;;
27666;SDS011;15074;50.940;5.282;2023-04-02T15:16:45;2.97;;;2.45;;
27666;SDS011;15074;50.940;5.282;2023-04-02T15:19:12;4.47;;;3.05;;
27666;SDS011;15074;50.940;5.282;2023-04-02T15:24:39;5.20;;;3.22;;
27666;SDS011;15074;50.940;5.282;2023-04-02T15:32:39;3.72;;;2.70;;
27666;SDS011;15074;50.940;5.282;2023-04-02T15:38:15;3.90;;;3.60;;
27666;SDS011;15074;50.940;5.282;2023-04-02T15:44:04;8.07;;;4.00;;
27666;SDS011;15074;50.940;5.282;2023-04-02T15:57:44;4.28;;;3.55;;
27666;SDS011;15074;50.940;5.282;2023-04-02T16:00:22;4.75;;;3.45;;
27666;SDS011;15074;50.940;5.282;2023-04-02T16:11:38;4.63;;;3.75;;
27666;SDS011;15074;50.940;5.282;2023-04-02T16:14:23;4.72;;;3.47;;
27666;SDS011;15074;50.940;5.282;2023-04-02T16:19:40;4.00;;;3.28;;
27666;SDS011;15074;50.940;5.282;2023-04-02T16:22:18;5.95;;;4.03;;
27666;SDS011;15074;50.940;5.282;2023-04-02T16:24:49;5.45;;;3.47;;
27666;SDS011;15074;50.940;5.282;2023-04-02T16:38:07;2.85;;;2.55;;
27666;SDS011;15074;50.940;5.282;2023-04-02T16:43:46;2.92;;;2.63;;
27666;SDS011;15074;50.940;5.282;2023-04-02T16:46:32;3.55;;;3.10;;
27666;SDS011;15074;50.940;5.282;2023-04-02T16:49:21;7.00;;;3.10;;
27666;SDS011;15074;50.940;5.282;2023-04-02T17:06:08;3.47;;;2.53;;
27666;SDS011;15074;50.940;5.282;2023-04-02T17:08:56;4.55;;;3.17;;
27666;SDS011;15074;50.940;5.282;2023-04-02T17:11:39;3.13;;;2.83;;
27666;SDS011;15074;50.940;5.282;2023-04-02T17:14:29;4.05;;;3.55;;
27666;SDS011;15074;50.940;5.282;2023-04-02T17:17:03;4.18;;;3.20;;
27666;SDS011;15074;50.940;5.282;2023-04-02T17:19:29;3.25;;;2.95;;
27666;SDS011;15074;50.940;5.282;2023-04-02T17:21:57;3.45;;;3.13;;
27666;SDS011;15074;50.940;5.282;2023-04-02T17:24:27;4.05;;;3.40;;
27666;SDS011;15074;50.940;5.282;2023-04-02T17:27:11;3.65;;;2.78;;
27666;SDS011;15074;50.940;5.282;2023-04-02T17:30:14;5.00;;;3.40;;
27666;SDS011;15074;50.940;5.282;2023-04-02T17:32:41;3.97;;;3.25;;
27666;SDS011;15074;50.940;5.282;2023-04-02T17:35:21;3.13;;;2.83;;
27666;SDS011;15074;50.940;5.282;2023-04-02T17:46:47;5.15;;;3.63;;
27666;SDS011;15074;50.940;5.282;2023-04-02T17:52:44;3.97;;;3.08;;
27666;SDS011;15074;50.940;5.282;2023-04-02T17:58:01;4.78;;;3.08;;
27666;SDS011;15074;50.940;5.282;2023-04-02T18:06:37;5.50;;;4.38;;
27666;SDS011;15074;50.940;5.282;2023-04-02T18:19:49;5.25;;;4.80;;
27666;SDS011;15074;50.940;5.282;2023-04-02T18:22:33;6.65;;;5.22;;
27666;SDS011;15074;50.940;5.282;2023-04-02T18:28:28;7.47;;;5.78;;
27666;SDS011;15074;50.940;5.282;2023-04-02T18:31:15;6.72;;;5.57;;
27666;SDS011;15074;50.940;5.282;2023-04-02T18:33:57;6.10;;;5.50;;
27666;SDS011;15074;50.940;5.282;2023-04-02T18:39:18;9.82;;;8.32;;
27666;SDS011;15074;50.940;5.282;2023-04-02T18:42:04;9.57;;;8.50;;
27666;SDS011;15074;50.940;5.282;2023-04-02T18:44:48;9.43;;;8.43;;
27666;SDS011;15074;50.940;5.282;2023-04-02T18:50:14;8.98;;;6.45;;
27666;SDS011;15074;50.940;5.282;2023-04-02T18:52:54;7.80;;;7.05;;
27666;SDS011;15074;50.940;5.282;2023-04-02T18:55:20;7.82;;;6.93;;
27666;SDS011;15074;50.940;5.282;2023-04-02T18:57:51;7.25;;;6.65;;
27666;SDS011;15074;50.940;5.282;2023-04-02T19:00:38;9.20;;;8.30;;
27666;SDS011;15074;50.940;5.282;2023-04-02T19:03:41;7.40;;;6.13;;
27666;SDS011;15074;50.940;5.282;2023-04-02T19:06:17;8.40;;;6.05;;
27666;SDS011;15074;50.940;5.282;2023-04-02T19:08:49;7.43;;;5.93;;
27666;SDS011;15074;50.940;5.282;2023-04-02T19:11:21;6.72;;;6.07;;
27666;SDS011;15074;50.940;5.282;2023-04-02T19:13:58;6.03;;;5.43;;
27666;SDS011;15074;50.940;5.282;2023-04-02T19:19:34;5.07;;;4.57;;
27666;SDS011;15074;50.940;5.282;2023-04-02T19:22:25;6.53;;;3.30;;
27666;SDS011;15074;50.940;5.282;2023-04-02T19:25:13;4.03;;;3.30;;
27666;SDS011;15074;50.940;5.282;2023-04-02T19:28:11;4.15;;;3.40;;
27666;SDS011;15074;50.940;5.282;2023-04-02T19:30:57;4.25;;;3.80;;
27666;SDS011;15074;50.940;5.282;2023-04-02T19:44:09;5.57;;;4.97;;
27666;SDS011;15074;50.940;5.282;2023-04-02T19:46:36;6.07;;;5.50;;
27666;SDS011;15074;50.940;5.282;2023-04-02T19:51:37;6.20;;;5.38;;
27666;SDS011;15074;50.940;5.282;2023-04-02T19:54:03;6.07;;;5.50;;
27666;SDS011;15074;50.940;5.282;2023-04-02T19:56:28;6.65;;;5.38;;
27666;SDS011;15074;50.940;5.282;2023-04-02T19:58:54;7.00;;;6.32;;
27666;SDS011;15074;50.940;5.282;2023-04-02T20:01:20;6.65;;;6.05;;
27666;SDS011;15074;50.940;5.282;2023-04-02T20:03:46;6.22;;;5.63;;
27666;SDS011;15074;50.940;5.282;2023-04-02T20:06:11;8.30;;;5.38;;
27666;SDS011;15074;50.940;5.282;2023-04-02T20:08:37;5.88;;;5.25;;
27666;SDS011;15074;50.940;5.282;2023-04-02T20:11:03;7.00;;;6.35;;
27666;SDS011;15074;50.940;5.282;2023-04-02T20:13:30;7.95;;;7.25;;
27666;SDS011;15074;50.940;5.282;2023-04-02T20:15:59;7.53;;;6.50;;
27666;SDS011;15074;50.940;5.282;2023-04-02T20:18:26;6.18;;;5.68;;
27666;SDS011;15074;50.940;5.282;2023-04-02T20:20:53;7.20;;;6.45;;
27666;SDS011;15074;50.940;5.282;2023-04-02T20:23:19;6.53;;;5.95;;
27666;SDS011;15074;50.940;5.282;2023-04-02T20:25:45;8.38;;;7.57;;
27666;SDS011;15074;50.940;5.282;2023-04-02T20:28:16;7.75;;;6.95;;
27666;SDS011;15074;50.940;5.282;2023-04-02T20:30:50;10.00;;;6.95;;
27666;SDS011;15074;50.940;5.282;2023-04-02T20:33:16;7.75;;;7.05;;
27666;SDS011;15074;50.940;5.282;2023-04-02T20:35:43;8.77;;;7.97;;
27666;SDS011;15074;50.940;5.282;2023-04-02T20:38:09;7.70;;;7.00;;
27666;SDS011;15074;50.940;5.282;2023-04-02T20:40:37;8.43;;;6.68;;
27666;SDS011;15074;50.940;5.282;2023-04-02T20:43:03;7.75;;;6.40;;
27666;SDS011;15074;50.940;5.282;2023-04-02T20:45:29;8.43;;;7.38;;
27666;SDS011;15074;50.940;5.282;2023-04-02T20:47:55;7.75;;;7.05;;
27666;SDS011;15074;50.940;5.282;2023-04-02T20:50:21;11.77;;;6.82;;
27666;SDS011;15074;50.940;5.282;2023-04-02T20:52:47;8.10;;;7.35;;
27666;SDS011;15074;50.940;5.282;2023-04-02T20:55:13;11.25;;;7.00;;
27666;SDS011;15074;50.940;5.282;2023-04-02T20:57:38;8.02;;;7.28;;